sensor_id;sensor_type;location;lat;lon;timestamp;pressure;altitude;pressure_sealevel;temperature;humidity
61488;BME280;47351;53.326;-6.298;2022-11-14T00:01:08;100478.96;;;12.29;92.52
61488;BME280;47351;53.326;-6.298;2022-11-14T00:04:16;100483.66;;;12.24;92.34
61488;BME280;47351;53.326;-6.298;2022-11-14T00:07:25;100483.27;;;12.23;92.69
61488;BME280;47351;53.326;-6.298;2022-11-14T00:10:36;100485.87;;;12.24;92.93
61488;BME280;47351;53.326;-6.298;2022-11-14T00:13:44;100482.35;;;12.22;92.92
61488;BME280;47351;53.326;-6.298;2022-11-14T00:16:53;100482.02;;;12.18;92.79
61488;BME280;47351;53.326;-6.298;2022-11-14T00:20:01;100480.13;;;12.16;93.02
61488;BME280;47351;53.326;-6.298;2022-11-14T00:23:10;100485.68;;;12.11;92.63
61488;BME280;47351;53.326;-6.298;2022-11-14T00:26:18;100471.88;;;12.05;92.55
61488;BME280;47351;53.326;-6.298;2022-11-14T00:29:26;100482.41;;;11.99;92.61
61488;BME280;47351;53.326;-6.298;2022-11-14T00:32:34;100475.98;;;11.94;92.71
61488;BME280;47351;53.326;-6.298;2022-11-14T00:35:51;100480.33;;;11.89;92.73
61488;BME280;47351;53.326;-6.298;2022-11-14T00:38:59;100484.90;;;11.83;92.69
61488;BME280;47351;53.326;-6.298;2022-11-14T00:42:08;100481.42;;;11.80;93.10
61488;BME280;47351;53.326;-6.298;2022-11-14T00:45:17;100483.40;;;11.78;93.26
61488;BME280;47351;53.326;-6.298;2022-11-14T00:48:25;100483.30;;;11.78;93.53
61488;BME280;47351;53.326;-6.298;2022-11-14T00:51:34;100478.69;;;11.76;93.59
61488;BME280;47351;53.326;-6.298;2022-11-14T00:54:42;100474.95;;;11.74;93.86
61488;BME280;47351;53.326;-6.298;2022-11-14T00:57:50;100469.42;;;11.73;94.16
61488;BME280;47351;53.326;-6.298;2022-11-14T01:00:58;100468.41;;;11.70;94.22
61488;BME280;47351;53.326;-6.298;2022-11-14T01:04:06;100457.16;;;11.69;94.12
61488;BME280;47351;53.326;-6.298;2022-11-14T01:07:15;100448.65;;;11.67;94.32
61488;BME280;47351;53.326;-6.298;2022-11-14T01:10:23;100444.15;;;11.65;94.53
61488;BME280;47351;53.326;-6.298;2022-11-14T01:13:32;100442.38;;;11.65;95.02
61488;BME280;47351;53.326;-6.298;2022-11-14T01:16:40;100441.58;;;11.64;94.83
61488;BME280;47351;53.326;-6.298;2022-11-14T01:19:48;100446.44;;;11.62;94.81
61488;BME280;47351;53.326;-6.298;2022-11-14T01:22:56;100455.59;;;11.60;94.79
61488;BME280;47351;53.326;-6.298;2022-11-14T01:26:07;100444.67;;;11.55;94.57
61488;BME280;47351;53.326;-6.298;2022-11-14T01:29:15;100435.77;;;11.53;95.21
61488;BME280;47351;53.326;-6.298;2022-11-14T01:32:25;100437.12;;;11.54;95.40
61488;BME280;47351;53.326;-6.298;2022-11-14T01:35:35;100432.36;;;11.52;95.32
61488;BME280;47351;53.326;-6.298;2022-11-14T01:38:51;100433.23;;;11.51;95.48
61488;BME280;47351;53.326;-6.298;2022-11-14T01:42:01;100434.48;;;11.51;95.70
61488;BME280;47351;53.326;-6.298;2022-11-14T01:49:18;100413.70;;;11.50;96.00
61488;BME280;47351;53.326;-6.298;2022-11-14T01:52:30;100412.95;;;11.50;96.19
61488;BME280;47351;53.326;-6.298;2022-11-14T01:55:41;100402.19;;;11.50;96.25
61488;BME280;47351;53.326;-6.298;2022-11-14T01:58:57;100401.00;;;11.51;96.35
61488;BME280;47351;53.326;-6.298;2022-11-14T02:02:15;100393.51;;;11.53;96.59
61488;BME280;47351;53.326;-6.298;2022-11-14T02:05:24;100387.85;;;11.54;96.48
61488;BME280;47351;53.326;-6.298;2022-11-14T02:08:33;100385.11;;;11.54;96.51
61488;BME280;47351;53.326;-6.298;2022-11-14T02:11:44;100380.23;;;11.55;96.69
61488;BME280;47351;53.326;-6.298;2022-11-14T02:14:52;100372.77;;;11.56;96.68
61488;BME280;47351;53.326;-6.298;2022-11-14T02:18:01;100366.77;;;11.57;96.71
61488;BME280;47351;53.326;-6.298;2022-11-14T02:21:10;100368.20;;;11.57;96.72
61488;BME280;47351;53.326;-6.298;2022-11-14T02:24:18;100367.30;;;11.57;96.84
61488;BME280;47351;53.326;-6.298;2022-11-14T02:27:26;100369.30;;;11.58;96.82
61488;BME280;47351;53.326;-6.298;2022-11-14T02:30:35;100369.66;;;11.59;97.23
61488;BME280;47351;53.326;-6.298;2022-11-14T02:33:43;100365.86;;;11.62;97.41
61488;BME280;47351;53.326;-6.298;2022-11-14T02:36:52;100364.98;;;11.62;97.37
61488;BME280;47351;53.326;-6.298;2022-11-14T02:40:00;100360.85;;;11.60;97.38
61488;BME280;47351;53.326;-6.298;2022-11-14T02:43:08;100363.86;;;11.59;97.35
61488;BME280;47351;53.326;-6.298;2022-11-14T02:46:17;100364.64;;;11.58;97.51
61488;BME280;47351;53.326;-6.298;2022-11-14T02:49:25;100368.40;;;11.58;97.77
61488;BME280;47351;53.326;-6.298;2022-11-14T02:52:33;100364.27;;;11.58;98.02
61488;BME280;47351;53.326;-6.298;2022-11-14T02:55:42;100358.75;;;11.58;98.03
61488;BME280;47351;53.326;-6.298;2022-11-14T02:58:50;100348.80;;;11.58;98.11
61488;BME280;47351;53.326;-6.298;2022-11-14T03:01:58;100342.27;;;11.57;98.26
61488;BME280;47351;53.326;-6.298;2022-11-14T03:05:10;100339.11;;;11.56;98.33
61488;BME280;47351;53.326;-6.298;2022-11-14T03:08:19;100331.83;;;11.56;98.35
61488;BME280;47351;53.326;-6.298;2022-11-14T03:11:27;100323.31;;;11.54;98.06
61488;BME280;47351;53.326;-6.298;2022-11-14T03:14:35;100318.95;;;11.51;97.98
61488;BME280;47351;53.326;-6.298;2022-11-14T03:17:43;100312.77;;;11.51;98.25
61488;BME280;47351;53.326;-6.298;2022-11-14T03:20:52;100313.23;;;11.51;98.65
61488;BME280;47351;53.326;-6.298;2022-11-14T03:24:00;100314.36;;;11.51;98.56
61488;BME280;47351;53.326;-6.298;2022-11-14T03:27:09;100319.26;;;11.50;98.58
61488;BME280;47351;53.326;-6.298;2022-11-14T03:30:17;100320.88;;;11.48;98.54
61488;BME280;47351;53.326;-6.298;2022-11-14T03:33:26;100319.31;;;11.48;98.61
61488;BME280;47351;53.326;-6.298;2022-11-14T03:36:34;100313.61;;;11.48;98.67
61488;BME280;47351;53.326;-6.298;2022-11-14T03:39:43;100312.23;;;11.47;98.65
61488;BME280;47351;53.326;-6.298;2022-11-14T03:42:51;100310.06;;;11.46;98.45
61488;BME280;47351;53.326;-6.298;2022-11-14T03:46:00;100302.17;;;11.45;98.56
61488;BME280;47351;53.326;-6.298;2022-11-14T03:49:09;100301.30;;;11.45;98.46
61488;BME280;47351;53.326;-6.298;2022-11-14T03:52:17;100302.33;;;11.44;98.38
61488;BME280;47351;53.326;-6.298;2022-11-14T03:55:25;100300.26;;;11.41;98.15
61488;BME280;47351;53.326;-6.298;2022-11-14T03:58:34;100301.77;;;11.41;98.51
61488;BME280;47351;53.326;-6.298;2022-11-14T04:01:42;100299.95;;;11.41;98.69
61488;BME280;47351;53.326;-6.298;2022-11-14T04:04:50;100298.66;;;11.41;98.86
61488;BME280;47351;53.326;-6.298;2022-11-14T04:07:59;100298.52;;;11.41;98.95
61488;BME280;47351;53.326;-6.298;2022-11-14T04:11:07;100296.05;;;11.39;98.46
61488;BME280;47351;53.326;-6.298;2022-11-14T04:14:15;100298.48;;;11.35;98.20
61488;BME280;47351;53.326;-6.298;2022-11-14T04:17:24;100296.48;;;11.32;98.21
61488;BME280;47351;53.326;-6.298;2022-11-14T04:20:32;100288.92;;;11.28;98.07
61488;BME280;47351;53.326;-6.298;2022-11-14T04:23:40;100287.04;;;11.26;98.21
61488;BME280;47351;53.326;-6.298;2022-11-14T04:26:48;100287.17;;;11.23;98.21
61488;BME280;47351;53.326;-6.298;2022-11-14T04:29:57;100292.23;;;11.19;97.95
61488;BME280;47351;53.326;-6.298;2022-11-14T04:33:05;100296.30;;;11.17;98.07
61488;BME280;47351;53.326;-6.298;2022-11-14T04:36:13;100296.80;;;11.15;98.37
61488;BME280;47351;53.326;-6.298;2022-11-14T04:39:22;100299.52;;;11.13;98.26
61488;BME280;47351;53.326;-6.298;2022-11-14T04:42:30;100301.17;;;11.11;98.23
61488;BME280;47351;53.326;-6.298;2022-11-14T04:45:38;100297.83;;;11.09;98.31
61488;BME280;47351;53.326;-6.298;2022-11-14T04:48:47;100292.04;;;11.08;98.47
61488;BME280;47351;53.326;-6.298;2022-11-14T04:51:55;100287.52;;;11.07;98.27
61488;BME280;47351;53.326;-6.298;2022-11-14T04:55:04;100283.38;;;11.04;98.11
61488;BME280;47351;53.326;-6.298;2022-11-14T04:58:13;100277.52;;;11.01;98.04
61488;BME280;47351;53.326;-6.298;2022-11-14T05:01:21;100273.70;;;10.99;98.25
61488;BME280;47351;53.326;-6.298;2022-11-14T05:04:30;100270.10;;;10.97;98.15
61488;BME280;47351;53.326;-6.298;2022-11-14T05:07:38;100268.30;;;10.94;98.02
61488;BME280;47351;53.326;-6.298;2022-11-14T05:10:46;100269.55;;;10.90;97.98
61488;BME280;47351;53.326;-6.298;2022-11-14T05:13:55;100270.75;;;10.87;98.01
61488;BME280;47351;53.326;-6.298;2022-11-14T05:17:03;100268.09;;;10.84;97.90
61488;BME280;47351;53.326;-6.298;2022-11-14T05:20:12;100275.23;;;10.81;97.97
61488;BME280;47351;53.326;-6.298;2022-11-14T05:23:23;100277.80;;;10.79;98.02
61488;BME280;47351;53.326;-6.298;2022-11-14T05:26:31;100278.75;;;10.75;97.85
61488;BME280;47351;53.326;-6.298;2022-11-14T05:29:40;100272.30;;;10.72;97.91
61488;BME280;47351;53.326;-6.298;2022-11-14T05:32:48;100269.35;;;10.70;98.08
61488;BME280;47351;53.326;-6.298;2022-11-14T05:36:03;100266.89;;;10.66;97.84
61488;BME280;47351;53.326;-6.298;2022-11-14T05:39:12;100262.80;;;10.64;98.10
61488;BME280;47351;53.326;-6.298;2022-11-14T05:42:20;100255.83;;;10.63;98.00
61488;BME280;47351;53.326;-6.298;2022-11-14T05:45:30;100255.27;;;10.61;97.94
61488;BME280;47351;53.326;-6.298;2022-11-14T05:48:38;100253.72;;;10.59;98.04
61488;BME280;47351;53.326;-6.298;2022-11-14T05:51:47;100253.24;;;10.57;97.98
61488;BME280;47351;53.326;-6.298;2022-11-14T05:54:55;100251.20;;;10.56;98.24
61488;BME280;47351;53.326;-6.298;2022-11-14T05:58:04;100246.98;;;10.57;98.63
61488;BME280;47351;53.326;-6.298;2022-11-14T06:01:13;100236.45;;;10.57;98.60
61488;BME280;47351;53.326;-6.298;2022-11-14T06:04:21;100224.20;;;10.58;98.69
61488;BME280;47351;53.326;-6.298;2022-11-14T06:07:35;100217.17;;;10.59;98.86
61488;BME280;47351;53.326;-6.298;2022-11-14T06:10:46;100218.01;;;10.59;98.84
61488;BME280;47351;53.326;-6.298;2022-11-14T06:13:55;100215.19;;;10.61;98.95
61488;BME280;47351;53.326;-6.298;2022-11-14T06:17:03;100205.77;;;10.62;99.01
61488;BME280;47351;53.326;-6.298;2022-11-14T06:20:12;100197.14;;;10.62;98.80
61488;BME280;47351;53.326;-6.298;2022-11-14T06:23:22;100191.37;;;10.63;98.62
61488;BME280;47351;53.326;-6.298;2022-11-14T06:26:32;100186.31;;;10.63;98.75
61488;BME280;47351;53.326;-6.298;2022-11-14T06:29:41;100184.05;;;10.64;99.06
61488;BME280;47351;53.326;-6.298;2022-11-14T06:32:50;100188.63;;;10.63;99.10
61488;BME280;47351;53.326;-6.298;2022-11-14T06:36:05;100198.91;;;10.63;99.03
61488;BME280;47351;53.326;-6.298;2022-11-14T06:39:17;100205.90;;;10.62;99.05
61488;BME280;47351;53.326;-6.298;2022-11-14T06:42:56;100204.32;;;10.60;99.05
61488;BME280;47351;53.326;-6.298;2022-11-14T06:46:06;100209.64;;;10.59;99.19
61488;BME280;47351;53.326;-6.298;2022-11-14T06:49:15;100208.05;;;10.57;99.15
61488;BME280;47351;53.326;-6.298;2022-11-14T06:52:24;100212.33;;;10.56;99.08
61488;BME280;47351;53.326;-6.298;2022-11-14T06:55:33;100224.98;;;10.53;99.01
61488;BME280;47351;53.326;-6.298;2022-11-14T06:58:44;100229.30;;;10.51;99.07
61488;BME280;47351;53.326;-6.298;2022-11-14T07:01:55;100235.16;;;10.48;98.91
61488;BME280;47351;53.326;-6.298;2022-11-14T07:05:04;100241.83;;;10.44;98.80
61488;BME280;47351;53.326;-6.298;2022-11-14T07:08:12;100245.56;;;10.41;98.69
61488;BME280;47351;53.326;-6.298;2022-11-14T07:11:28;100256.77;;;10.35;98.43
61488;BME280;47351;53.326;-6.298;2022-11-14T07:14:36;100265.20;;;10.30;98.25
61488;BME280;47351;53.326;-6.298;2022-11-14T07:17:44;100272.50;;;10.25;98.10
61488;BME280;47351;53.326;-6.298;2022-11-14T07:20:57;100276.64;;;10.22;98.18
61488;BME280;47351;53.326;-6.298;2022-11-14T07:24:06;100278.98;;;10.20;98.32
61488;BME280;47351;53.326;-6.298;2022-11-14T07:27:15;100274.47;;;10.19;98.48
61488;BME280;47351;53.326;-6.298;2022-11-14T07:30:23;100280.25;;;10.20;98.42
61488;BME280;47351;53.326;-6.298;2022-11-14T07:33:33;100281.84;;;10.20;98.35
61488;BME280;47351;53.326;-6.298;2022-11-14T07:36:45;100278.24;;;10.20;98.23
61488;BME280;47351;53.326;-6.298;2022-11-14T07:39:54;100279.11;;;10.21;98.14
61488;BME280;47351;53.326;-6.298;2022-11-14T07:43:03;100280.68;;;10.23;98.26
61488;BME280;47351;53.326;-6.298;2022-11-14T07:46:12;100287.24;;;10.25;98.31
61488;BME280;47351;53.326;-6.298;2022-11-14T07:49:23;100284.25;;;10.27;98.32
61488;BME280;47351;53.326;-6.298;2022-11-14T07:52:31;100281.55;;;10.27;98.07
61488;BME280;47351;53.326;-6.298;2022-11-14T07:55:40;100281.35;;;10.27;97.99
61488;BME280;47351;53.326;-6.298;2022-11-14T07:58:48;100275.96;;;10.26;97.73
61488;BME280;47351;53.326;-6.298;2022-11-14T08:01:56;100272.58;;;10.26;97.68
61488;BME280;47351;53.326;-6.298;2022-11-14T08:05:05;100275.63;;;10.25;97.76
61488;BME280;47351;53.326;-6.298;2022-11-14T08:08:14;100272.98;;;10.27;97.92
61488;BME280;47351;53.326;-6.298;2022-11-14T08:11:22;100270.31;;;10.29;97.98
61488;BME280;47351;53.326;-6.298;2022-11-14T08:14:50;100264.83;;;10.30;97.97
61488;BME280;47351;53.326;-6.298;2022-11-14T08:18:00;100262.89;;;10.30;98.06
61488;BME280;47351;53.326;-6.298;2022-11-14T08:21:08;100262.18;;;10.29;97.66
61488;BME280;47351;53.326;-6.298;2022-11-14T08:24:17;100264.89;;;10.31;97.55
61488;BME280;47351;53.326;-6.298;2022-11-14T08:27:26;100258.88;;;10.32;97.63
61488;BME280;47351;53.326;-6.298;2022-11-14T08:30:34;100251.86;;;10.34;97.70
61488;BME280;47351;53.326;-6.298;2022-11-14T08:33:42;100244.84;;;10.36;97.54
61488;BME280;47351;53.326;-6.298;2022-11-14T08:36:51;100238.34;;;10.42;97.91
61488;BME280;47351;53.326;-6.298;2022-11-14T08:40:02;100233.95;;;10.46;97.85
61488;BME280;47351;53.326;-6.298;2022-11-14T08:43:10;100235.71;;;10.51;97.89
61488;BME280;47351;53.326;-6.298;2022-11-14T08:46:18;100232.99;;;10.55;97.88
61488;BME280;47351;53.326;-6.298;2022-11-14T08:49:27;100232.96;;;10.58;98.09
61488;BME280;47351;53.326;-6.298;2022-11-14T08:52:35;100231.42;;;10.62;98.17
61488;BME280;47351;53.326;-6.298;2022-11-14T08:55:44;100226.50;;;10.66;98.01
61488;BME280;47351;53.326;-6.298;2022-11-14T08:58:53;100228.45;;;10.73;98.04
61488;BME280;47351;53.326;-6.298;2022-11-14T09:02:02;100228.84;;;10.81;98.26
61488;BME280;47351;53.326;-6.298;2022-11-14T09:05:10;100224.97;;;10.88;98.20
61488;BME280;47351;53.326;-6.298;2022-11-14T09:08:19;100216.88;;;10.95;98.23
61488;BME280;47351;53.326;-6.298;2022-11-14T09:11:27;100212.34;;;11.01;98.19
61488;BME280;47351;53.326;-6.298;2022-11-14T09:14:36;100215.51;;;11.04;98.01
61488;BME280;47351;53.326;-6.298;2022-11-14T09:17:44;100215.23;;;11.06;97.79
61488;BME280;47351;53.326;-6.298;2022-11-14T09:20:57;100214.02;;;11.09;97.66
61488;BME280;47351;53.326;-6.298;2022-11-14T09:24:07;100217.44;;;11.14;97.69
61488;BME280;47351;53.326;-6.298;2022-11-14T09:27:15;100216.92;;;11.17;97.50
61488;BME280;47351;53.326;-6.298;2022-11-14T09:30:24;100214.73;;;11.21;97.28
61488;BME280;47351;53.326;-6.298;2022-11-14T09:33:33;100207.98;;;11.23;97.08
61488;BME280;47351;53.326;-6.298;2022-11-14T09:36:42;100208.10;;;11.27;96.98
61488;BME280;47351;53.326;-6.298;2022-11-14T09:39:50;100205.98;;;11.28;96.44
61488;BME280;47351;53.326;-6.298;2022-11-14T09:43:30;100206.30;;;11.31;96.55
61488;BME280;47351;53.326;-6.298;2022-11-14T09:46:48;100204.02;;;11.33;95.93
61488;BME280;47351;53.326;-6.298;2022-11-14T09:50:04;100201.97;;;11.33;95.42
61488;BME280;47351;53.326;-6.298;2022-11-14T09:53:21;100199.25;;;11.35;95.15
61488;BME280;47351;53.326;-6.298;2022-11-14T09:56:33;100205.91;;;11.38;94.42
61488;BME280;47351;53.326;-6.298;2022-11-14T09:59:41;100208.05;;;11.43;94.30
61488;BME280;47351;53.326;-6.298;2022-11-14T10:02:58;100213.80;;;11.47;93.84
61488;BME280;47351;53.326;-6.298;2022-11-14T10:06:22;100214.65;;;11.49;92.92
61488;BME280;47351;53.326;-6.298;2022-11-14T10:09:50;100212.52;;;11.52;92.34
61488;BME280;47351;53.326;-6.298;2022-11-14T10:13:11;100213.84;;;11.63;92.22
61488;BME280;47351;53.326;-6.298;2022-11-14T10:16:31;100212.83;;;11.76;91.37
61488;BME280;47351;53.326;-6.298;2022-11-14T10:19:48;100213.48;;;11.89;90.39
61488;BME280;47351;53.326;-6.298;2022-11-14T10:23:14;100215.27;;;11.97;89.73
61488;BME280;47351;53.326;-6.298;2022-11-14T10:26:27;100215.98;;;11.95;89.19
61488;BME280;47351;53.326;-6.298;2022-11-14T10:30:04;100222.20;;;11.95;88.73
61488;BME280;47351;53.326;-6.298;2022-11-14T10:33:21;100223.80;;;11.96;88.75
61488;BME280;47351;53.326;-6.298;2022-11-14T10:36:43;100224.67;;;11.93;88.51
61488;BME280;47351;53.326;-6.298;2022-11-14T10:39:55;100224.87;;;11.93;88.39
61488;BME280;47351;53.326;-6.298;2022-11-14T10:43:19;100224.95;;;11.95;88.19
61488;BME280;47351;53.326;-6.298;2022-11-14T10:46:31;100221.66;;;12.00;87.71
61488;BME280;47351;53.326;-6.298;2022-11-14T10:49:42;100221.08;;;12.10;86.97
61488;BME280;47351;53.326;-6.298;2022-11-14T10:52:59;100219.98;;;12.22;86.47
61488;BME280;47351;53.326;-6.298;2022-11-14T10:56:11;100220.67;;;12.34;85.84
61488;BME280;47351;53.326;-6.298;2022-11-14T10:59:21;100222.86;;;12.44;85.28
61488;BME280;47351;53.326;-6.298;2022-11-14T11:02:47;100225.30;;;12.50;84.64
61488;BME280;47351;53.326;-6.298;2022-11-14T11:05:56;100217.80;;;12.43;84.33
61488;BME280;47351;53.326;-6.298;2022-11-14T11:09:10;100215.41;;;12.33;84.33
61488;BME280;47351;53.326;-6.298;2022-11-14T11:12:42;100211.71;;;12.22;84.09
61488;BME280;47351;53.326;-6.298;2022-11-14T11:15:55;100204.84;;;12.19;83.61
61488;BME280;47351;53.326;-6.298;2022-11-14T11:19:20;100192.80;;;12.32;83.47
61488;BME280;47351;53.326;-6.298;2022-11-14T11:22:39;100188.22;;;12.94;82.34
61488;BME280;47351;53.326;-6.298;2022-11-14T11:25:59;100171.74;;;16.68;77.25
61488;BME280;47351;53.326;-6.298;2022-11-14T11:29:16;100154.88;;;19.23;71.34
61488;BME280;47351;53.326;-6.298;2022-11-14T11:32:25;100151.20;;;21.22;66.74
61488;BME280;47351;53.326;-6.298;2022-11-14T11:35:35;100144.38;;;21.78;62.31
61488;BME280;47351;53.326;-6.298;2022-11-14T11:38:44;100151.25;;;20.18;62.35
61488;BME280;47351;53.326;-6.298;2022-11-14T11:41:54;100154.16;;;18.53;63.82
61488;BME280;47351;53.326;-6.298;2022-11-14T11:45:21;100145.34;;;19.43;63.51
61488;BME280;47351;53.326;-6.298;2022-11-14T11:48:36;100146.35;;;19.84;61.95
61488;BME280;47351;53.326;-6.298;2022-11-14T11:51:45;100141.17;;;18.64;61.07
61488;BME280;47351;53.326;-6.298;2022-11-14T11:54:58;100138.16;;;17.47;62.28
61488;BME280;47351;53.326;-6.298;2022-11-14T11:58:14;100135.78;;;16.41;63.49
61488;BME280;47351;53.326;-6.298;2022-11-14T12:01:25;100141.16;;;15.51;64.98
61488;BME280;47351;53.326;-6.298;2022-11-14T12:04:34;100142.67;;;14.86;66.37
61488;BME280;47351;53.326;-6.298;2022-11-14T12:07:48;100145.54;;;14.43;66.89
61488;BME280;47351;53.326;-6.298;2022-11-14T12:10:59;100141.95;;;14.07;67.72
61488;BME280;47351;53.326;-6.298;2022-11-14T12:14:26;100136.83;;;13.70;69.10
61488;BME280;47351;53.326;-6.298;2022-11-14T12:18:05;100136.55;;;13.42;70.16
61488;BME280;47351;53.326;-6.298;2022-11-14T12:21:39;100128.66;;;13.36;70.84
61488;BME280;47351;53.326;-6.298;2022-11-14T12:25:13;100112.65;;;16.14;67.93
61488;BME280;47351;53.326;-6.298;2022-11-14T12:28:49;100093.36;;;20.15;61.23
61488;BME280;47351;53.326;-6.298;2022-11-14T12:32:09;100082.83;;;22.11;56.26
61488;BME280;47351;53.326;-6.298;2022-11-14T12:35:21;100085.91;;;22.30;53.18
61488;BME280;47351;53.326;-6.298;2022-11-14T12:38:39;100088.19;;;21.05;53.46
61488;BME280;47351;53.326;-6.298;2022-11-14T12:41:49;100085.52;;;19.91;54.22
61488;BME280;47351;53.326;-6.298;2022-11-14T12:44:57;100080.30;;;19.25;55.51
61488;BME280;47351;53.326;-6.298;2022-11-14T12:48:22;100074.80;;;19.00;56.18
61488;BME280;47351;53.326;-6.298;2022-11-14T12:51:50;100070.40;;;19.04;56.10
61488;BME280;47351;53.326;-6.298;2022-11-14T12:54:58;100061.77;;;19.43;55.48
61488;BME280;47351;53.326;-6.298;2022-11-14T12:58:08;100058.02;;;19.93;54.39
61488;BME280;47351;53.326;-6.298;2022-11-14T13:01:47;100049.48;;;20.23;52.70
61488;BME280;47351;53.326;-6.298;2022-11-14T13:05:01;100044.26;;;20.44;51.31
61488;BME280;47351;53.326;-6.298;2022-11-14T13:08:43;100035.52;;;20.74;51.20
61488;BME280;47351;53.326;-6.298;2022-11-14T13:11:56;100027.02;;;21.07;49.79
61488;BME280;47351;53.326;-6.298;2022-11-14T13:15:28;100032.77;;;20.91;48.70
61488;BME280;47351;53.326;-6.298;2022-11-14T13:19:02;100032.40;;;19.66;49.22
61488;BME280;47351;53.326;-6.298;2022-11-14T13:22:39;100033.73;;;19.31;49.38
61488;BME280;47351;53.326;-6.298;2022-11-14T13:25:48;100027.95;;;19.60;47.61
61488;BME280;47351;53.326;-6.298;2022-11-14T13:33:06;100019.05;;;18.88;47.63
61488;BME280;47351;53.326;-6.298;2022-11-14T13:36:23;100017.84;;;17.71;49.66
61488;BME280;47351;53.326;-6.298;2022-11-14T13:39:41;100014.20;;;16.63;50.92
61488;BME280;47351;53.326;-6.298;2022-11-14T13:42:58;100016.13;;;15.81;52.25
61488;BME280;47351;53.326;-6.298;2022-11-14T13:46:11;100007.39;;;16.33;52.60
61488;BME280;47351;53.326;-6.298;2022-11-14T13:49:36;99999.42;;;17.15;52.03
61488;BME280;47351;53.326;-6.298;2022-11-14T13:52:47;99992.41;;;17.87;51.53
61488;BME280;47351;53.326;-6.298;2022-11-14T13:56:07;99983.29;;;18.37;50.65
61488;BME280;47351;53.326;-6.298;2022-11-14T14:03:23;99973.36;;;19.04;50.67
61488;BME280;47351;53.326;-6.298;2022-11-14T14:06:41;99974.33;;;18.39;51.41
61488;BME280;47351;53.326;-6.298;2022-11-14T14:10:03;99974.02;;;17.18;51.52
61488;BME280;47351;53.326;-6.298;2022-11-14T14:13:25;99969.20;;;16.19;52.99
61488;BME280;47351;53.326;-6.298;2022-11-14T14:16:47;99961.48;;;15.36;53.77
61488;BME280;47351;53.326;-6.298;2022-11-14T14:20:03;99957.87;;;15.45;53.96
61488;BME280;47351;53.326;-6.298;2022-11-14T14:23:35;99953.23;;;15.55;53.36
61488;BME280;47351;53.326;-6.298;2022-11-14T14:26:58;99945.41;;;15.38;52.89
61488;BME280;47351;53.326;-6.298;2022-11-14T14:30:10;99937.44;;;15.05;53.11
61488;BME280;47351;53.326;-6.298;2022-11-14T14:33:19;99943.77;;;14.70;54.28
61488;BME280;47351;53.326;-6.298;2022-11-14T14:36:29;99941.11;;;14.31;55.03
61488;BME280;47351;53.326;-6.298;2022-11-14T14:39:38;99941.58;;;13.93;55.66
61488;BME280;47351;53.326;-6.298;2022-11-14T14:42:47;99934.23;;;13.61;56.63
61488;BME280;47351;53.326;-6.298;2022-11-14T14:45:55;99930.90;;;13.34;57.59
61488;BME280;47351;53.326;-6.298;2022-11-14T14:49:04;99930.70;;;13.13;58.69
61488;BME280;47351;53.326;-6.298;2022-11-14T14:52:20;99929.63;;;12.94;59.18
61488;BME280;47351;53.326;-6.298;2022-11-14T14:55:32;99929.98;;;12.77;59.30
61488;BME280;47351;53.326;-6.298;2022-11-14T14:58:40;99924.91;;;12.60;59.86
61488;BME280;47351;53.326;-6.298;2022-11-14T15:01:49;99919.60;;;12.47;60.65
61488;BME280;47351;53.326;-6.298;2022-11-14T15:04:58;99914.05;;;12.34;60.59
61488;BME280;47351;53.326;-6.298;2022-11-14T15:08:12;99910.89;;;12.22;61.07
61488;BME280;47351;53.326;-6.298;2022-11-14T15:11:22;99900.90;;;12.11;61.44
61488;BME280;47351;53.326;-6.298;2022-11-14T15:14:36;99898.52;;;12.01;61.91
61488;BME280;47351;53.326;-6.298;2022-11-14T15:17:46;99899.04;;;11.91;61.95
61488;BME280;47351;53.326;-6.298;2022-11-14T15:21:10;99888.80;;;11.83;62.15
61488;BME280;47351;53.326;-6.298;2022-11-14T15:24:22;99882.60;;;11.73;62.57
61488;BME280;47351;53.326;-6.298;2022-11-14T15:27:30;99867.84;;;11.65;62.36
61488;BME280;47351;53.326;-6.298;2022-11-14T15:30:39;99861.69;;;11.58;62.83
61488;BME280;47351;53.326;-6.298;2022-11-14T15:34:02;99857.73;;;11.52;63.44
61488;BME280;47351;53.326;-6.298;2022-11-14T15:37:22;99851.95;;;11.46;63.94
61488;BME280;47351;53.326;-6.298;2022-11-14T15:40:30;99844.77;;;11.39;64.50
61488;BME280;47351;53.326;-6.298;2022-11-14T15:43:50;99837.19;;;11.30;64.72
61488;BME280;47351;53.326;-6.298;2022-11-14T15:46:59;99833.99;;;11.21;65.02
61488;BME280;47351;53.326;-6.298;2022-11-14T15:50:24;99829.83;;;11.13;65.35
61488;BME280;47351;53.326;-6.298;2022-11-14T15:53:34;99827.48;;;11.04;65.53
61488;BME280;47351;53.326;-6.298;2022-11-14T15:56:42;99818.52;;;10.95;65.81
61488;BME280;47351;53.326;-6.298;2022-11-14T15:59:51;99810.77;;;10.87;66.03
61488;BME280;47351;53.326;-6.298;2022-11-14T16:03:00;99805.08;;;10.78;66.44
61488;BME280;47351;53.326;-6.298;2022-11-14T16:06:10;99801.58;;;10.68;66.64
61488;BME280;47351;53.326;-6.298;2022-11-14T16:09:20;99798.88;;;10.59;66.81
61488;BME280;47351;53.326;-6.298;2022-11-14T16:12:28;99788.72;;;10.50;66.78
61488;BME280;47351;53.326;-6.298;2022-11-14T16:15:37;99783.35;;;10.41;66.73
61488;BME280;47351;53.326;-6.298;2022-11-14T16:18:45;99787.62;;;10.34;66.65
61488;BME280;47351;53.326;-6.298;2022-11-14T16:21:56;99782.02;;;10.27;66.75
61488;BME280;47351;53.326;-6.298;2022-11-14T16:25:11;99783.32;;;10.18;66.79
61488;BME280;47351;53.326;-6.298;2022-11-14T16:28:22;99780.89;;;10.11;66.89
61488;BME280;47351;53.326;-6.298;2022-11-14T16:31:30;99779.46;;;10.05;67.01
61488;BME280;47351;53.326;-6.298;2022-11-14T16:34:39;99771.48;;;10.00;67.25
61488;BME280;47351;53.326;-6.298;2022-11-14T16:37:47;99767.39;;;9.95;67.68
61488;BME280;47351;53.326;-6.298;2022-11-14T16:40:57;99765.89;;;9.92;68.20
61488;BME280;47351;53.326;-6.298;2022-11-14T16:44:12;99756.36;;;9.88;68.42
61488;BME280;47351;53.326;-6.298;2022-11-14T16:47:21;99748.93;;;9.84;68.52